Aérodrome :
LOGIN :

S'inscrire | Disclaimer

   EN    FR    IT 

 










Légende :    VFR   VFR Marginal   IFR   IFR Intensif   IFR Très Intensif
Visi : 
Plafond : 
>= 8 km
>= 3000ft
5 à 8 km
1000 à 3000 ft
1500m à 5 km
500 à 1000 ft
800 à 1500m
200 à 500 ft
< 800m
< 200 ft
Symboles :   Orages  Brouillard  Fortes neiges  Fortes précipitations  Vent > 20 kt
SIGMETs :   Divers  Orages  Givrage  Turbulence  Onde Orograph.  Cendres Volcan.






- Altitude de l'aérodrome : 699 ft
- Code IATA : PAD


EDLP - Paderborn Lippstadt

DERNIER METAR :
  • 221550Z 24003KT 210V270 9999 BKN026 12/09 Q1024

METARs EXPIRÉS :
  • 221520Z 20004KT 9999 BKN026 13/09 Q1024
  • 221450Z 22004KT 190V260 9999 BKN026 13/09 Q1024
  • 221420Z 22005KT 9999 OVC026 13/09 Q1024
  • 221350Z 24005KT 220V280 9999 OVC022 13/09 Q1024
  • 221320Z 24009KT 9999 OVC022 13/08 Q1024

TAF TAF EDLP
Valide du 22 à 12h jusqu'au 23 à 12h UTC


221100Z 2212/2312 24005KT 9999 BKN030
BECMG 2213/2216 VRB03KT
BECMG 2222/2301 13006KT
PROB30
TEMPO 2304/2309 4000 BR



MET'MAP, la Météo Aéronautique d'un coup d'oeil ! - Copyright ORBIFLY Décembre 2007 - Disclaimer

ORBIFLY MET'MAP TEAM :

Programmation & Développement : Alexandra Zaïnal
Conception & Développement : Baudouin d'Aumeries
Co-Programmation & Développement : Marc-Olivier Méhu
Soutien technique & logistique : Manuel Goepfert

Contact : metmap@orbifly.com




SOURCES & CREDITS :

   NOAA